sensor_id;sensor_type;location;lat;lon;timestamp;temperature;humidity
14600;DHT22;7386;45.586;12.854;2022-10-16T00:01:07;17.80;99.50
14600;DHT22;7386;45.586;12.854;2022-10-16T00:03:35;17.80;99.50
14600;DHT22;7386;45.586;12.854;2022-10-16T00:06:04;17.80;99.50
14600;DHT22;7386;45.586;12.854;2022-10-16T00:08:33;17.70;99.50
14600;DHT22;7386;45.586;12.854;2022-10-16T00:11:03;17.80;99.60
14600;DHT22;7386;45.586;12.854;2022-10-16T00:13:34;17.70;99.60
14600;DHT22;7386;45.586;12.854;2022-10-16T00:16:04;17.70;99.60
14600;DHT22;7386;45.586;12.854;2022-10-16T00:18:32;17.80;99.60
14600;DHT22;7386;45.586;12.854;2022-10-16T00:21:03;17.80;99.60
14600;DHT22;7386;45.586;12.854;2022-10-16T00:23:32;17.70;99.60
14600;DHT22;7386;45.586;12.854;2022-10-16T00:26:02;17.70;99.60
14600;DHT22;7386;45.586;12.854;2022-10-16T00:28:33;17.70;99.70
14600;DHT22;7386;45.586;12.854;2022-10-16T00:31:03;17.70;99.70
14600;DHT22;7386;45.586;12.854;2022-10-16T00:33:32;17.70;99.70
14600;DHT22;7386;45.586;12.854;2022-10-16T00:36:01;17.70;99.80
14600;DHT22;7386;45.586;12.854;2022-10-16T00:38:30;17.70;99.80
14600;DHT22;7386;45.586;12.854;2022-10-16T00:40:59;17.70;99.80
14600;DHT22;7386;45.586;12.854;2022-10-16T00:43:38;17.70;99.80
14600;DHT22;7386;45.586;12.854;2022-10-16T00:46:13;17.70;99.80
14600;DHT22;7386;45.586;12.854;2022-10-16T00:48:46;17.70;99.90
14600;DHT22;7386;45.586;12.854;2022-10-16T00:51:17;17.70;99.90
14600;DHT22;7386;45.586;12.854;2022-10-16T00:53:47;17.70;99.90
14600;DHT22;7386;45.586;12.854;2022-10-16T00:56:16;17.70;99.90
14600;DHT22;7386;45.586;12.854;2022-10-16T00:58:46;17.70;99.90
14600;DHT22;7386;45.586;12.854;2022-10-16T01:01:15;17.70;99.90
14600;DHT22;7386;45.586;12.854;2022-10-16T01:03:43;17.70;99.90
14600;DHT22;7386;45.586;12.854;2022-10-16T01:06:28;17.70;99.90
14600;DHT22;7386;45.586;12.854;2022-10-16T01:09:10;17.70;99.90
14600;DHT22;7386;45.586;12.854;2022-10-16T01:11:45;17.70;99.90
14600;DHT22;7386;45.586;12.854;2022-10-16T01:14:23;17.70;99.90
14600;DHT22;7386;45.586;12.854;2022-10-16T01:16:57;17.70;99.90
14600;DHT22;7386;45.586;12.854;2022-10-16T01:19:45;17.70;99.90
14600;DHT22;7386;45.586;12.854;2022-10-16T01:22:15;17.70;99.90
14600;DHT22;7386;45.586;12.854;2022-10-16T01:24:46;17.60;99.90
14600;DHT22;7386;45.586;12.854;2022-10-16T01:27:21;17.70;99.90
14600;DHT22;7386;45.586;12.854;2022-10-16T01:29:54;17.70;99.90
14600;DHT22;7386;45.586;12.854;2022-10-16T01:32:28;17.60;99.90
14600;DHT22;7386;45.586;12.854;2022-10-16T01:35:02;17.60;99.90
14600;DHT22;7386;45.586;12.854;2022-10-16T01:37:34;17.60;99.90
14600;DHT22;7386;45.586;12.854;2022-10-16T01:40:07;17.60;99.90
14600;DHT22;7386;45.586;12.854;2022-10-16T01:42:41;17.60;99.90
14600;DHT22;7386;45.586;12.854;2022-10-16T01:45:12;17.60;99.90
14600;DHT22;7386;45.586;12.854;2022-10-16T01:47:41;17.60;99.90
14600;DHT22;7386;45.586;12.854;2022-10-16T01:50:12;17.50;99.90
14600;DHT22;7386;45.586;12.854;2022-10-16T01:52:43;17.50;99.90
14600;DHT22;7386;45.586;12.854;2022-10-16T01:55:22;17.50;99.90
14600;DHT22;7386;45.586;12.854;2022-10-16T01:58:09;17.60;99.90
14600;DHT22;7386;45.586;12.854;2022-10-16T02:00:41;17.50;99.90
14600;DHT22;7386;45.586;12.854;2022-10-16T02:03:12;17.50;99.90
14600;DHT22;7386;45.586;12.854;2022-10-16T02:05:44;17.50;99.90
14600;DHT22;7386;45.586;12.854;2022-10-16T02:08:13;17.50;99.90
14600;DHT22;7386;45.586;12.854;2022-10-16T02:10:42;17.50;99.90
14600;DHT22;7386;45.586;12.854;2022-10-16T02:13:13;17.50;99.90
14600;DHT22;7386;45.586;12.854;2022-10-16T02:15:44;17.50;99.90
14600;DHT22;7386;45.586;12.854;2022-10-16T02:18:13;17.50;99.90
14600;DHT22;7386;45.586;12.854;2022-10-16T02:20:48;17.50;99.90
14600;DHT22;7386;45.586;12.854;2022-10-16T02:23:23;17.50;99.90
14600;DHT22;7386;45.586;12.854;2022-10-16T02:25:54;17.50;99.90
14600;DHT22;7386;45.586;12.854;2022-10-16T02:28:32;17.50;99.90
14600;DHT22;7386;45.586;12.854;2022-10-16T02:31:05;17.50;99.90
14600;DHT22;7386;45.586;12.854;2022-10-16T02:33:37;17.50;99.90
14600;DHT22;7386;45.586;12.854;2022-10-16T02:36:07;17.50;99.90
14600;DHT22;7386;45.586;12.854;2022-10-16T02:38:36;17.50;99.90
14600;DHT22;7386;45.586;12.854;2022-10-16T02:41:05;17.50;99.90
14600;DHT22;7386;45.586;12.854;2022-10-16T02:43:35;17.50;99.90
14600;DHT22;7386;45.586;12.854;2022-10-16T02:46:03;17.50;99.90
14600;DHT22;7386;45.586;12.854;2022-10-16T02:48:32;17.50;99.90
14600;DHT22;7386;45.586;12.854;2022-10-16T02:51:00;17.50;99.90
14600;DHT22;7386;45.586;12.854;2022-10-16T02:53:28;17.50;99.90
14600;DHT22;7386;45.586;12.854;2022-10-16T02:55:56;17.50;99.90
14600;DHT22;7386;45.586;12.854;2022-10-16T02:58:25;17.50;99.90
14600;DHT22;7386;45.586;12.854;2022-10-16T03:00:55;17.50;99.90
14600;DHT22;7386;45.586;12.854;2022-10-16T03:03:23;17.50;99.90
14600;DHT22;7386;45.586;12.854;2022-10-16T03:05:51;17.60;99.90
14600;DHT22;7386;45.586;12.854;2022-10-16T03:08:19;17.60;99.90
14600;DHT22;7386;45.586;12.854;2022-10-16T03:10:50;17.60;99.90
14600;DHT22;7386;45.586;12.854;2022-10-16T03:13:18;17.60;99.90
14600;DHT22;7386;45.586;12.854;2022-10-16T03:15:48;17.60;99.90
14600;DHT22;7386;45.586;12.854;2022-10-16T03:18:18;17.60;99.90
14600;DHT22;7386;45.586;12.854;2022-10-16T03:20:46;17.50;99.90
14600;DHT22;7386;45.586;12.854;2022-10-16T03:23:14;17.50;99.90
14600;DHT22;7386;45.586;12.854;2022-10-16T03:25:42;17.50;99.90
14600;DHT22;7386;45.586;12.854;2022-10-16T03:28:14;17.50;99.90
14600;DHT22;7386;45.586;12.854;2022-10-16T03:30:43;17.50;99.90
14600;DHT22;7386;45.586;12.854;2022-10-16T03:33:11;17.50;99.90
14600;DHT22;7386;45.586;12.854;2022-10-16T03:35:41;17.40;99.90
14600;DHT22;7386;45.586;12.854;2022-10-16T03:38:09;17.40;99.90
14600;DHT22;7386;45.586;12.854;2022-10-16T03:40:37;17.40;99.90
14600;DHT22;7386;45.586;12.854;2022-10-16T03:43:05;17.40;99.90
14600;DHT22;7386;45.586;12.854;2022-10-16T03:45:34;17.40;99.90
14600;DHT22;7386;45.586;12.854;2022-10-16T03:48:02;17.30;99.90
14600;DHT22;7386;45.586;12.854;2022-10-16T03:50:30;17.30;99.90
14600;DHT22;7386;45.586;12.854;2022-10-16T03:53:00;17.30;99.90
14600;DHT22;7386;45.586;12.854;2022-10-16T03:55:28;17.30;99.90
14600;DHT22;7386;45.586;12.854;2022-10-16T03:57:56;17.20;99.90
14600;DHT22;7386;45.586;12.854;2022-10-16T04:00:25;17.20;99.90
14600;DHT22;7386;45.586;12.854;2022-10-16T04:02:53;17.10;99.90
14600;DHT22;7386;45.586;12.854;2022-10-16T04:05:21;17.10;99.90
14600;DHT22;7386;45.586;12.854;2022-10-16T04:07:49;17.00;99.90
14600;DHT22;7386;45.586;12.854;2022-10-16T04:10:19;17.00;99.90
14600;DHT22;7386;45.586;12.854;2022-10-16T04:12:47;16.90;99.90
14600;DHT22;7386;45.586;12.854;2022-10-16T04:15:15;16.90;99.90
14600;DHT22;7386;45.586;12.854;2022-10-16T04:17:43;16.80;99.90
14600;DHT22;7386;45.586;12.854;2022-10-16T04:20:12;16.80;99.90
14600;DHT22;7386;45.586;12.854;2022-10-16T04:22:40;16.80;99.90
14600;DHT22;7386;45.586;12.854;2022-10-16T04:25:08;16.70;99.90
14600;DHT22;7386;45.586;12.854;2022-10-16T04:27:39;16.70;99.90
14600;DHT22;7386;45.586;12.854;2022-10-16T04:30:12;16.60;99.90
14600;DHT22;7386;45.586;12.854;2022-10-16T04:32:40;16.60;99.90
14600;DHT22;7386;45.586;12.854;2022-10-16T04:35:09;16.60;99.90
14600;DHT22;7386;45.586;12.854;2022-10-16T04:37:37;16.50;99.90
14600;DHT22;7386;45.586;12.854;2022-10-16T04:40:06;16.50;99.90
14600;DHT22;7386;45.586;12.854;2022-10-16T04:42:34;16.50;99.90
14600;DHT22;7386;45.586;12.854;2022-10-16T04:45:05;16.50;99.90
14600;DHT22;7386;45.586;12.854;2022-10-16T04:47:39;16.40;99.90
14600;DHT22;7386;45.586;12.854;2022-10-16T04:50:08;16.40;99.90
14600;DHT22;7386;45.586;12.854;2022-10-16T04:52:36;16.40;99.90
14600;DHT22;7386;45.586;12.854;2022-10-16T04:55:05;16.30;99.90
14600;DHT22;7386;45.586;12.854;2022-10-16T04:57:33;16.30;99.90
14600;DHT22;7386;45.586;12.854;2022-10-16T05:00:04;16.30;99.90
14600;DHT22;7386;45.586;12.854;2022-10-16T05:02:33;16.20;99.90
14600;DHT22;7386;45.586;12.854;2022-10-16T05:05:01;16.20;99.90
14600;DHT22;7386;45.586;12.854;2022-10-16T05:07:29;16.20;99.90
14600;DHT22;7386;45.586;12.854;2022-10-16T05:09:58;16.20;99.90
14600;DHT22;7386;45.586;12.854;2022-10-16T05:12:26;16.10;99.90
14600;DHT22;7386;45.586;12.854;2022-10-16T05:14:54;16.00;99.90
14600;DHT22;7386;45.586;12.854;2022-10-16T05:17:27;16.00;99.90
14600;DHT22;7386;45.586;12.854;2022-10-16T05:19:55;16.00;99.90
14600;DHT22;7386;45.586;12.854;2022-10-16T05:22:23;16.00;99.90
14600;DHT22;7386;45.586;12.854;2022-10-16T05:24:51;15.90;99.90
14600;DHT22;7386;45.586;12.854;2022-10-16T05:27:20;15.90;99.90
14600;DHT22;7386;45.586;12.854;2022-10-16T05:29:49;15.80;99.90
14600;DHT22;7386;45.586;12.854;2022-10-16T05:32:18;15.80;99.90
14600;DHT22;7386;45.586;12.854;2022-10-16T05:34:48;15.70;99.90
14600;DHT22;7386;45.586;12.854;2022-10-16T05:37:16;15.70;99.90
14600;DHT22;7386;45.586;12.854;2022-10-16T05:39:44;15.70;99.90
14600;DHT22;7386;45.586;12.854;2022-10-16T05:42:12;15.60;99.90
14600;DHT22;7386;45.586;12.854;2022-10-16T05:44:41;15.60;99.90
14600;DHT22;7386;45.586;12.854;2022-10-16T05:47:09;15.60;99.90
14600;DHT22;7386;45.586;12.854;2022-10-16T05:49:38;15.50;99.90
14600;DHT22;7386;45.586;12.854;2022-10-16T05:52:08;15.50;99.90
14600;DHT22;7386;45.586;12.854;2022-10-16T05:54:37;15.50;99.90
14600;DHT22;7386;45.586;12.854;2022-10-16T05:57:05;15.50;99.90
14600;DHT22;7386;45.586;12.854;2022-10-16T05:59:33;15.40;99.90
14600;DHT22;7386;45.586;12.854;2022-10-16T06:02:01;15.40;99.90
14600;DHT22;7386;45.586;12.854;2022-10-16T06:04:30;15.40;99.90
14600;DHT22;7386;45.586;12.854;2022-10-16T06:06:58;15.40;99.90
14600;DHT22;7386;45.586;12.854;2022-10-16T06:09:29;15.40;99.90
14600;DHT22;7386;45.586;12.854;2022-10-16T06:11:57;15.30;99.90
14600;DHT22;7386;45.586;12.854;2022-10-16T06:14:26;15.30;99.90
14600;DHT22;7386;45.586;12.854;2022-10-16T06:16:54;15.30;99.90
14600;DHT22;7386;45.586;12.854;2022-10-16T06:19:22;15.30;99.90
14600;DHT22;7386;45.586;12.854;2022-10-16T06:21:50;15.30;99.90
14600;DHT22;7386;45.586;12.854;2022-10-16T06:24:19;15.30;99.90
14600;DHT22;7386;45.586;12.854;2022-10-16T06:26:48;15.30;99.90
14600;DHT22;7386;45.586;12.854;2022-10-16T06:29:16;15.30;99.90
14600;DHT22;7386;45.586;12.854;2022-10-16T06:31:45;15.30;99.90
14600;DHT22;7386;45.586;12.854;2022-10-16T06:34:13;15.30;99.90
14600;DHT22;7386;45.586;12.854;2022-10-16T06:36:41;15.30;99.90
14600;DHT22;7386;45.586;12.854;2022-10-16T06:39:10;15.30;99.90
14600;DHT22;7386;45.586;12.854;2022-10-16T06:41:38;15.40;99.90
14600;DHT22;7386;45.586;12.854;2022-10-16T06:44:08;15.40;99.90
14600;DHT22;7386;45.586;12.854;2022-10-16T06:46:36;15.40;99.90
14600;DHT22;7386;45.586;12.854;2022-10-16T06:49:04;15.40;99.90
14600;DHT22;7386;45.586;12.854;2022-10-16T06:51:32;15.50;99.90
14600;DHT22;7386;45.586;12.854;2022-10-16T06:54:08;15.50;99.90
14600;DHT22;7386;45.586;12.854;2022-10-16T06:56:38;15.60;99.90
14600;DHT22;7386;45.586;12.854;2022-10-16T06:59:08;15.60;99.90
14600;DHT22;7386;45.586;12.854;2022-10-16T07:01:36;15.60;99.90
14600;DHT22;7386;45.586;12.854;2022-10-16T07:04:04;15.70;99.90
14600;DHT22;7386;45.586;12.854;2022-10-16T07:06:33;15.70;99.90
14600;DHT22;7386;45.586;12.854;2022-10-16T07:09:04;15.80;99.90
14600;DHT22;7386;45.586;12.854;2022-10-16T07:11:33;15.80;99.90
14600;DHT22;7386;45.586;12.854;2022-10-16T07:14:02;15.80;99.90
14600;DHT22;7386;45.586;12.854;2022-10-16T07:16:32;15.80;99.90
14600;DHT22;7386;45.586;12.854;2022-10-16T07:19:01;15.90;99.90
14600;DHT22;7386;45.586;12.854;2022-10-16T07:21:32;16.00;99.90
14600;DHT22;7386;45.586;12.854;2022-10-16T07:24:04;16.00;99.90
14600;DHT22;7386;45.586;12.854;2022-10-16T07:26:35;16.10;99.90
14600;DHT22;7386;45.586;12.854;2022-10-16T07:29:03;16.10;99.90
14600;DHT22;7386;45.586;12.854;2022-10-16T07:31:33;16.20;99.90
14600;DHT22;7386;45.586;12.854;2022-10-16T07:34:01;16.20;99.90
14600;DHT22;7386;45.586;12.854;2022-10-16T07:36:29;16.30;99.90
14600;DHT22;7386;45.586;12.854;2022-10-16T07:38:58;16.30;99.90
14600;DHT22;7386;45.586;12.854;2022-10-16T07:41:26;16.30;99.90
14600;DHT22;7386;45.586;12.854;2022-10-16T07:43:55;16.40;99.90
14600;DHT22;7386;45.586;12.854;2022-10-16T07:46:27;16.50;99.90
14600;DHT22;7386;45.586;12.854;2022-10-16T07:48:57;16.50;99.90
14600;DHT22;7386;45.586;12.854;2022-10-16T07:51:26;16.50;99.90
14600;DHT22;7386;45.586;12.854;2022-10-16T07:53:55;16.60;99.90
14600;DHT22;7386;45.586;12.854;2022-10-16T07:56:23;16.70;99.90
14600;DHT22;7386;45.586;12.854;2022-10-16T07:58:52;16.70;99.90
14600;DHT22;7386;45.586;12.854;2022-10-16T08:01:20;16.80;99.90
14600;DHT22;7386;45.586;12.854;2022-10-16T08:03:50;16.80;99.90
14600;DHT22;7386;45.586;12.854;2022-10-16T08:06:21;16.90;99.90
14600;DHT22;7386;45.586;12.854;2022-10-16T08:08:54;16.90;99.90
14600;DHT22;7386;45.586;12.854;2022-10-16T08:11:22;17.00;99.90
14600;DHT22;7386;45.586;12.854;2022-10-16T08:13:51;17.10;99.90
14600;DHT22;7386;45.586;12.854;2022-10-16T08:16:19;17.10;99.90
14600;DHT22;7386;45.586;12.854;2022-10-16T08:18:48;17.10;99.90
14600;DHT22;7386;45.586;12.854;2022-10-16T08:21:21;17.30;99.90
14600;DHT22;7386;45.586;12.854;2022-10-16T08:23:50;17.30;99.90
14600;DHT22;7386;45.586;12.854;2022-10-16T08:26:25;17.40;99.90
14600;DHT22;7386;45.586;12.854;2022-10-16T08:28:54;17.50;99.90
14600;DHT22;7386;45.586;12.854;2022-10-16T08:31:23;17.50;99.90
14600;DHT22;7386;45.586;12.854;2022-10-16T08:33:51;17.60;99.90
14600;DHT22;7386;45.586;12.854;2022-10-16T08:36:21;17.70;99.90
14600;DHT22;7386;45.586;12.854;2022-10-16T08:38:50;17.70;99.90
14600;DHT22;7386;45.586;12.854;2022-10-16T08:41:46;17.80;99.90
14600;DHT22;7386;45.586;12.854;2022-10-16T08:47:17;18.00;99.90
14600;DHT22;7386;45.586;12.854;2022-10-16T08:49:53;18.10;99.90
14600;DHT22;7386;45.586;12.854;2022-10-16T08:52:29;18.20;99.90
14600;DHT22;7386;45.586;12.854;2022-10-16T08:54:58;18.20;99.90
14600;DHT22;7386;45.586;12.854;2022-10-16T08:57:26;18.30;99.90
14600;DHT22;7386;45.586;12.854;2022-10-16T08:59:59;18.30;99.90
14600;DHT22;7386;45.586;12.854;2022-10-16T09:02:32;18.40;99.90
14600;DHT22;7386;45.586;12.854;2022-10-16T09:05:18;18.40;99.90
14600;DHT22;7386;45.586;12.854;2022-10-16T09:07:58;18.50;99.90
14600;DHT22;7386;45.586;12.854;2022-10-16T09:10:39;18.50;99.90
14600;DHT22;7386;45.586;12.854;2022-10-16T09:13:20;18.60;99.90
14600;DHT22;7386;45.586;12.854;2022-10-16T09:15:55;18.60;99.90
14600;DHT22;7386;45.586;12.854;2022-10-16T09:18:29;18.70;99.90
14600;DHT22;7386;45.586;12.854;2022-10-16T09:21:06;18.70;99.90
14600;DHT22;7386;45.586;12.854;2022-10-16T09:23:39;18.80;99.90
14600;DHT22;7386;45.586;12.854;2022-10-16T09:28:38;18.80;99.90
14600;DHT22;7386;45.586;12.854;2022-10-16T09:31:13;18.90;99.90
14600;DHT22;7386;45.586;12.854;2022-10-16T09:33:44;18.90;99.90
14600;DHT22;7386;45.586;12.854;2022-10-16T09:36:13;18.90;99.90
14600;DHT22;7386;45.586;12.854;2022-10-16T09:38:43;18.90;99.90
14600;DHT22;7386;45.586;12.854;2022-10-16T09:41:16;18.90;99.90
14600;DHT22;7386;45.586;12.854;2022-10-16T09:43:52;18.90;99.90
14600;DHT22;7386;45.586;12.854;2022-10-16T09:46:25;18.90;99.90
14600;DHT22;7386;45.586;12.854;2022-10-16T09:48:56;18.90;99.90
14600;DHT22;7386;45.586;12.854;2022-10-16T09:51:27;18.90;99.90
14600;DHT22;7386;45.586;12.854;2022-10-16T09:53:59;18.90;99.90
14600;DHT22;7386;45.586;12.854;2022-10-16T09:56:29;18.90;99.90
14600;DHT22;7386;45.586;12.854;2022-10-16T09:59:02;19.00;99.90
14600;DHT22;7386;45.586;12.854;2022-10-16T10:01:36;19.00;99.90
14600;DHT22;7386;45.586;12.854;2022-10-16T10:04:06;19.00;99.90
14600;DHT22;7386;45.586;12.854;2022-10-16T10:06:36;19.00;99.90
14600;DHT22;7386;45.586;12.854;2022-10-16T10:09:17;19.10;99.90
14600;DHT22;7386;45.586;12.854;2022-10-16T10:11:52;19.00;99.90
14600;DHT22;7386;45.586;12.854;2022-10-16T10:14:27;19.10;99.90
14600;DHT22;7386;45.586;12.854;2022-10-16T10:17:12;19.10;99.90
14600;DHT22;7386;45.586;12.854;2022-10-16T10:19:44;19.10;99.90
14600;DHT22;7386;45.586;12.854;2022-10-16T10:22:26;19.10;99.90
14600;DHT22;7386;45.586;12.854;2022-10-16T10:25:16;19.20;99.90
14600;DHT22;7386;45.586;12.854;2022-10-16T10:30:44;19.20;99.90
14600;DHT22;7386;45.586;12.854;2022-10-16T10:33:20;19.20;99.90
14600;DHT22;7386;45.586;12.854;2022-10-16T10:36:00;19.20;99.90
14600;DHT22;7386;45.586;12.854;2022-10-16T10:38:39;19.30;99.90
14600;DHT22;7386;45.586;12.854;2022-10-16T10:41:39;19.30;99.90
14600;DHT22;7386;45.586;12.854;2022-10-16T10:44:18;19.30;99.90
14600;DHT22;7386;45.586;12.854;2022-10-16T10:46:51;19.40;99.90
14600;DHT22;7386;45.586;12.854;2022-10-16T10:49:39;19.40;99.90
14600;DHT22;7386;45.586;12.854;2022-10-16T10:52:34;19.40;99.90
14600;DHT22;7386;45.586;12.854;2022-10-16T10:55:13;19.40;99.90
14600;DHT22;7386;45.586;12.854;2022-10-16T10:58:00;19.40;99.90
14600;DHT22;7386;45.586;12.854;2022-10-16T11:00:42;19.40;99.90
14600;DHT22;7386;45.586;12.854;2022-10-16T11:03:23;19.50;99.90
14600;DHT22;7386;45.586;12.854;2022-10-16T11:05:56;19.50;99.90
14600;DHT22;7386;45.586;12.854;2022-10-16T11:08:31;19.50;99.90
14600;DHT22;7386;45.586;12.854;2022-10-16T11:11:04;19.50;99.90
14600;DHT22;7386;45.586;12.854;2022-10-16T11:13:36;19.50;99.90
14600;DHT22;7386;45.586;12.854;2022-10-16T11:16:15;19.60;99.90
14600;DHT22;7386;45.586;12.854;2022-10-16T11:18:52;19.60;99.90
14600;DHT22;7386;45.586;12.854;2022-10-16T11:21:23;19.60;99.90
14600;DHT22;7386;45.586;12.854;2022-10-16T11:24:00;19.60;99.90
14600;DHT22;7386;45.586;12.854;2022-10-16T11:26:34;19.70;99.90
14600;DHT22;7386;45.586;12.854;2022-10-16T11:29:05;19.70;99.90
14600;DHT22;7386;45.586;12.854;2022-10-16T11:31:40;19.70;99.90
14600;DHT22;7386;45.586;12.854;2022-10-16T11:34:13;19.70;99.90
14600;DHT22;7386;45.586;12.854;2022-10-16T11:36:47;19.70;99.90
14600;DHT22;7386;45.586;12.854;2022-10-16T11:39:20;19.80;99.90
14600;DHT22;7386;45.586;12.854;2022-10-16T11:41:51;19.80;99.90
14600;DHT22;7386;45.586;12.854;2022-10-16T11:44:36;19.80;99.90
14600;DHT22;7386;45.586;12.854;2022-10-16T11:47:13;19.80;99.90
14600;DHT22;7386;45.586;12.854;2022-10-16T11:50:23;19.90;99.90
14600;DHT22;7386;45.586;12.854;2022-10-16T11:52:58;19.90;99.90
14600;DHT22;7386;45.586;12.854;2022-10-16T11:55:33;19.90;99.90
14600;DHT22;7386;45.586;12.854;2022-10-16T11:58:05;19.90;99.90
14600;DHT22;7386;45.586;12.854;2022-10-16T12:00:39;20.00;99.90
14600;DHT22;7386;45.586;12.854;2022-10-16T12:03:17;20.00;99.90
14600;DHT22;7386;45.586;12.854;2022-10-16T12:05:58;20.00;99.90
14600;DHT22;7386;45.586;12.854;2022-10-16T12:08:28;20.00;99.90
14600;DHT22;7386;45.586;12.854;2022-10-16T12:11:07;20.00;99.90
14600;DHT22;7386;45.586;12.854;2022-10-16T12:13:37;20.10;99.90
14600;DHT22;7386;45.586;12.854;2022-10-16T12:16:20;20.10;99.90
14600;DHT22;7386;45.586;12.854;2022-10-16T12:18:50;20.10;99.90
14600;DHT22;7386;45.586;12.854;2022-10-16T12:21:31;20.10;99.90
14600;DHT22;7386;45.586;12.854;2022-10-16T12:24:01;20.20;99.90
14600;DHT22;7386;45.586;12.854;2022-10-16T12:26:32;20.20;99.90
14600;DHT22;7386;45.586;12.854;2022-10-16T12:29:14;20.20;99.90
14600;DHT22;7386;45.586;12.854;2022-10-16T12:31:46;20.30;99.90
14600;DHT22;7386;45.586;12.854;2022-10-16T12:34:27;20.30;99.90
14600;DHT22;7386;45.586;12.854;2022-10-16T12:37:14;20.40;99.90
14600;DHT22;7386;45.586;12.854;2022-10-16T12:39:47;20.40;99.90
14600;DHT22;7386;45.586;12.854;2022-10-16T12:42:30;20.40;99.90
14600;DHT22;7386;45.586;12.854;2022-10-16T12:45:00;20.50;99.90
14600;DHT22;7386;45.586;12.854;2022-10-16T12:47:49;20.50;99.90
14600;DHT22;7386;45.586;12.854;2022-10-16T12:50:28;20.60;99.90
14600;DHT22;7386;45.586;12.854;2022-10-16T12:52:57;20.60;99.90
14600;DHT22;7386;45.586;12.854;2022-10-16T12:55:26;20.60;99.90
14600;DHT22;7386;45.586;12.854;2022-10-16T12:58:18;20.70;99.90
14600;DHT22;7386;45.586;12.854;2022-10-16T13:00:56;20.70;99.90
14600;DHT22;7386;45.586;12.854;2022-10-16T13:03:56;20.70;99.90
14600;DHT22;7386;45.586;12.854;2022-10-16T13:06:35;20.70;99.90
14600;DHT22;7386;45.586;12.854;2022-10-16T13:09:36;20.80;99.90
14600;DHT22;7386;45.586;12.854;2022-10-16T13:12:21;20.80;99.90
14600;DHT22;7386;45.586;12.854;2022-10-16T13:15:12;20.80;99.90
14600;DHT22;7386;45.586;12.854;2022-10-16T13:17:51;20.80;99.90
14600;DHT22;7386;45.586;12.854;2022-10-16T13:20:29;20.90;99.90
14600;DHT22;7386;45.586;12.854;2022-10-16T13:23:06;20.90;99.90
14600;DHT22;7386;45.586;12.854;2022-10-16T13:25:48;20.90;99.90
14600;DHT22;7386;45.586;12.854;2022-10-16T13:28:21;20.90;99.90
14600;DHT22;7386;45.586;12.854;2022-10-16T13:30:52;20.90;99.90
14600;DHT22;7386;45.586;12.854;2022-10-16T13:33:30;20.90;99.90
14600;DHT22;7386;45.586;12.854;2022-10-16T13:36:01;20.90;99.90
14600;DHT22;7386;45.586;12.854;2022-10-16T13:38:31;20.90;99.90
14600;DHT22;7386;45.586;12.854;2022-10-16T13:41:01;20.90;99.90
14600;DHT22;7386;45.586;12.854;2022-10-16T13:43:34;20.90;99.90
14600;DHT22;7386;45.586;12.854;2022-10-16T13:46:04;20.80;99.80
14600;DHT22;7386;45.586;12.854;2022-10-16T13:48:34;20.80;99.80
14600;DHT22;7386;45.586;12.854;2022-10-16T13:51:12;20.80;99.70
14600;DHT22;7386;45.586;12.854;2022-10-16T13:53:41;20.80;99.70
14600;DHT22;7386;45.586;12.854;2022-10-16T13:56:11;20.70;99.70
14600;DHT22;7386;45.586;12.854;2022-10-16T13:58:40;20.80;99.70
14600;DHT22;7386;45.586;12.854;2022-10-16T14:01:16;20.70;99.70
14600;DHT22;7386;45.586;12.854;2022-10-16T14:03:47;20.70;99.70
14600;DHT22;7386;45.586;12.854;2022-10-16T14:06:19;20.60;99.80
14600;DHT22;7386;45.586;12.854;2022-10-16T14:08:52;20.60;99.80
14600;DHT22;7386;45.586;12.854;2022-10-16T14:11:23;20.60;99.80
14600;DHT22;7386;45.586;12.854;2022-10-16T14:13:52;20.60;99.80
14600;DHT22;7386;45.586;12.854;2022-10-16T14:16:22;20.50;99.80
14600;DHT22;7386;45.586;12.854;2022-10-16T14:18:56;20.50;99.80
14600;DHT22;7386;45.586;12.854;2022-10-16T14:21:26;20.50;99.80
14600;DHT22;7386;45.586;12.854;2022-10-16T14:23:55;20.40;99.80
14600;DHT22;7386;45.586;12.854;2022-10-16T14:26:25;20.40;99.80
14600;DHT22;7386;45.586;12.854;2022-10-16T14:29:11;20.40;99.90
14600;DHT22;7386;45.586;12.854;2022-10-16T14:31:40;20.40;99.90
14600;DHT22;7386;45.586;12.854;2022-10-16T14:34:27;20.40;99.90
14600;DHT22;7386;45.586;12.854;2022-10-16T14:36:59;20.40;99.90
14600;DHT22;7386;45.586;12.854;2022-10-16T14:39:29;20.40;99.90
14600;DHT22;7386;45.586;12.854;2022-10-16T14:41:58;20.40;99.90
14600;DHT22;7386;45.586;12.854;2022-10-16T14:44:30;20.40;99.90
14600;DHT22;7386;45.586;12.854;2022-10-16T14:47:08;20.30;99.90
14600;DHT22;7386;45.586;12.854;2022-10-16T14:49:37;20.30;99.90
14600;DHT22;7386;45.586;12.854;2022-10-16T14:52:10;20.30;99.90
14600;DHT22;7386;45.586;12.854;2022-10-16T14:54:40;20.30;99.90
14600;DHT22;7386;45.586;12.854;2022-10-16T14:57:16;20.30;99.90
14600;DHT22;7386;45.586;12.854;2022-10-16T14:59:46;20.40;99.90
14600;DHT22;7386;45.586;12.854;2022-10-16T15:02:20;20.30;99.90
14600;DHT22;7386;45.586;12.854;2022-10-16T15:04:50;20.40;99.90
14600;DHT22;7386;45.586;12.854;2022-10-16T15:07:20;20.40;99.90
14600;DHT22;7386;45.586;12.854;2022-10-16T15:09:49;20.40;99.90
14600;DHT22;7386;45.586;12.854;2022-10-16T15:12:17;20.30;99.90
14600;DHT22;7386;45.586;12.854;2022-10-16T15:14:45;20.30;99.90
14600;DHT22;7386;45.586;12.854;2022-10-16T15:17:13;20.30;99.90
14600;DHT22;7386;45.586;12.854;2022-10-16T15:19:47;20.30;99.90
14600;DHT22;7386;45.586;12.854;2022-10-16T15:22:15;20.30;99.90
14600;DHT22;7386;45.586;12.854;2022-10-16T15:24:45;20.30;99.90
14600;DHT22;7386;45.586;12.854;2022-10-16T15:27:13;20.20;99.90
14600;DHT22;7386;45.586;12.854;2022-10-16T15:29:41;20.20;99.90
14600;DHT22;7386;45.586;12.854;2022-10-16T15:32:10;20.20;99.90
14600;DHT22;7386;45.586;12.854;2022-10-16T15:34:38;20.20;99.90
14600;DHT22;7386;45.586;12.854;2022-10-16T15:37:06;20.20;99.90
14600;DHT22;7386;45.586;12.854;2022-10-16T15:39:34;20.10;99.90
14600;DHT22;7386;45.586;12.854;2022-10-16T15:42:08;20.20;99.90
14600;DHT22;7386;45.586;12.854;2022-10-16T15:44:36;20.10;99.90
14600;DHT22;7386;45.586;12.854;2022-10-16T15:47:05;20.10;99.90
14600;DHT22;7386;45.586;12.854;2022-10-16T15:49:33;20.10;99.90
14600;DHT22;7386;45.586;12.854;2022-10-16T15:52:01;20.10;99.90
14600;DHT22;7386;45.586;12.854;2022-10-16T15:54:29;20.10;99.90
14600;DHT22;7386;45.586;12.854;2022-10-16T15:56:57;20.10;99.90
14600;DHT22;7386;45.586;12.854;2022-10-16T15:59:27;20.10;99.90
14600;DHT22;7386;45.586;12.854;2022-10-16T16:01:55;20.10;99.90
14600;DHT22;7386;45.586;12.854;2022-10-16T16:04:24;20.10;99.90
14600;DHT22;7386;45.586;12.854;2022-10-16T16:07:10;20.10;99.90
14600;DHT22;7386;45.586;12.854;2022-10-16T16:09:39;20.10;99.90